createdAt,value
2024-05-09T00:01:30.710Z,59.16
2024-05-09T00:04:02.618Z,59.16
2024-05-09T00:06:33.049Z,59.45
2024-05-09T00:09:04.691Z,59.50
2024-05-09T00:11:35.126Z,59.80
2024-05-09T00:14:07.074Z,59.93
2024-05-09T00:16:37.597Z,60.40
2024-05-09T00:19:09.145Z,60.95
2024-05-09T00:21:45.228Z,61.25
2024-05-09T00:24:16.975Z,61.67
2024-05-09T00:26:47.604Z,61.81
2024-05-09T00:29:19.218Z,61.46
2024-05-09T00:31:49.756Z,61.54
2024-05-09T00:34:21.594Z,61.52
2024-05-09T00:36:52.176Z,62.05
2024-05-09T00:39:23.832Z,62.42
2024-05-09T00:41:54.150Z,62.63
2024-05-09T00:44:25.939Z,62.84
2024-05-09T00:46:57.752Z,63.14
2024-05-09T00:49:29.605Z,63.30
2024-05-09T00:52:00.262Z,63.19
2024-05-09T00:54:31.921Z,62.99
2024-05-09T00:57:03.583Z,63.76
2024-05-09T00:59:35.449Z,64.22
2024-05-09T01:02:05.805Z,64.17
2024-05-09T01:04:37.686Z,64.40
2024-05-09T01:07:08.654Z,64.27
2024-05-09T01:09:40.101Z,64.52
2024-05-09T01:12:10.745Z,64.86
2024-05-09T01:14:42.484Z,65.25
2024-05-09T01:17:12.936Z,65.60
2024-05-09T01:19:44.765Z,66.16
2024-05-09T01:22:15.205Z,66.55
2024-05-09T01:24:46.973Z,66.46
2024-05-09T01:27:17.294Z,66.62
2024-05-09T01:29:49.662Z,66.49
2024-05-09T01:32:19.914Z,66.65
2024-05-09T01:34:51.816Z,66.18
2024-05-09T01:37:22.282Z,66.14
2024-05-09T01:39:53.926Z,66.24
2024-05-09T01:42:24.262Z,66.08
2024-05-09T01:44:56.011Z,66.43
2024-05-09T01:47:26.580Z,66.56
2024-05-09T01:49:58.738Z,66.98
2024-05-09T01:52:29.124Z,67.38
2024-05-09T01:55:04.522Z,67.62
2024-05-09T01:57:38.486Z,67.59
2024-05-09T02:00:10.384Z,67.46
2024-05-09T02:02:46.545Z,67.45
2024-05-09T02:05:19.571Z,67.89
2024-05-09T02:07:49.971Z,68.21
2024-05-09T02:10:26.491Z,68.83
2024-05-09T02:13:03.983Z,68.79
2024-05-09T02:15:34.415Z,68.76
2024-05-09T02:18:07.040Z,68.19
2024-05-09T02:20:41.289Z,68.45
2024-05-09T02:23:13.927Z,68.82
2024-05-09T02:25:44.672Z,68.96
2024-05-09T02:28:16.488Z,69.07
2024-05-09T02:30:46.716Z,69.13
2024-05-09T02:33:18.557Z,69.36
2024-05-09T02:35:49.096Z,69.68
2024-05-09T02:38:20.686Z,70.01
2024-05-09T02:40:51.431Z,70.11
2024-05-09T02:43:23.123Z,70.28
2024-05-09T02:45:53.442Z,70.67
2024-05-09T02:48:25.243Z,70.30
2024-05-09T02:50:55.550Z,70.39
2024-05-09T02:53:27.470Z,70.77
2024-05-09T02:55:57.639Z,70.52
2024-05-09T02:58:29.265Z,70.14
2024-05-09T03:00:59.613Z,70.24
2024-05-09T03:03:31.746Z,70.39
2024-05-09T03:06:02.584Z,70.60
2024-05-09T03:08:34.153Z,70.73
2024-05-09T03:11:05.143Z,70.65
2024-05-09T03:13:41.461Z,70.64
2024-05-09T03:16:13.009Z,70.66
2024-05-09T03:18:43.425Z,70.25
2024-05-09T03:21:15.147Z,70.65
2024-05-09T03:23:45.741Z,71.04
2024-05-09T03:26:18.443Z,70.70
2024-05-09T03:28:48.621Z,71.03
2024-05-09T03:31:20.388Z,70.68
2024-05-09T03:33:50.861Z,70.35
2024-05-09T03:36:22.660Z,70.42
2024-05-09T03:38:52.988Z,70.58
2024-05-09T03:41:25.640Z,70.71
2024-05-09T03:43:55.927Z,70.50
2024-05-09T03:46:27.554Z,70.58
2024-05-09T03:48:58.033Z,69.92
2024-05-09T03:51:29.728Z,69.29
2024-05-09T03:54:00.966Z,68.68
2024-05-09T03:56:32.677Z,68.04
2024-05-09T03:59:03.176Z,67.22
2024-05-09T04:01:34.879Z,67.26
2024-05-09T04:04:05.562Z,66.54
2024-05-09T04:06:37.289Z,65.72
2024-05-09T04:09:07.523Z,64.88
2024-05-09T04:11:39.510Z,63.95
2024-05-09T04:14:09.920Z,63.27
2024-05-09T04:16:41.678Z,62.81
2024-05-09T04:19:12.155Z,62.55
2024-05-09T04:21:44.003Z,62.31
2024-05-09T04:24:14.383Z,62.10
2024-05-09T04:26:46.757Z,61.54
2024-05-09T04:29:17.262Z,61.20
2024-05-09T04:31:49.116Z,60.87
2024-05-09T04:34:19.602Z,60.95
2024-05-09T04:36:51.645Z,60.47
2024-05-09T04:39:21.865Z,60.18
2024-05-09T04:41:53.602Z,59.38
2024-05-09T04:44:24.079Z,59.08
2024-05-09T04:46:55.717Z,58.47
2024-05-09T04:49:26.302Z,57.71
2024-05-09T04:51:58.085Z,57.11
2024-05-09T04:54:35.797Z,56.76
2024-05-09T04:57:08.468Z,56.18
2024-05-09T04:59:38.668Z,55.08
2024-05-09T05:02:10.413Z,55.13
2024-05-09T05:04:41.109Z,54.89
2024-05-09T05:07:13.040Z,55.30
2024-05-09T05:09:43.654Z,55.75
2024-05-09T05:12:33.991Z,56.33
2024-05-09T05:15:06.220Z,56.77
2024-05-09T05:17:36.815Z,56.36
2024-05-09T05:20:12.695Z,56.61
2024-05-09T05:22:48.000Z,56.97
2024-05-09T05:25:18.485Z,56.93
2024-05-09T05:27:50.236Z,56.84
2024-05-09T05:30:25.257Z,56.75
2024-05-09T05:33:01.133Z,57.11
2024-05-09T05:35:31.813Z,56.94
2024-05-09T05:38:04.052Z,57.32
2024-05-09T05:40:37.216Z,57.25
2024-05-09T05:43:16.228Z,57.30
2024-05-09T05:45:48.318Z,57.24
2024-05-09T05:48:19.079Z,57.05
2024-05-09T05:50:50.838Z,56.71
2024-05-09T05:53:21.447Z,56.58
2024-05-09T05:55:53.337Z,56.58
2024-05-09T05:58:23.825Z,56.46
2024-05-09T06:00:55.510Z,56.68
2024-05-09T06:03:26.192Z,55.76
2024-05-09T06:06:01.838Z,55.37
2024-05-09T06:08:33.668Z,55.32
2024-05-09T06:11:04.521Z,54.78
2024-05-09T06:13:36.002Z,54.54
2024-05-09T06:16:06.820Z,54.12
2024-05-09T06:18:38.683Z,53.74
2024-05-09T06:21:09.123Z,53.25
2024-05-09T06:23:48.504Z,53.10
2024-05-09T06:26:20.593Z,53.02
2024-05-09T06:28:50.988Z,53.20
2024-05-09T06:31:22.717Z,52.89
2024-05-09T06:33:53.146Z,52.94
2024-05-09T06:36:24.913Z,53.03
2024-05-09T06:38:55.423Z,52.84
2024-05-09T06:41:27.269Z,52.81
2024-05-09T06:43:57.762Z,52.50
2024-05-09T06:46:29.784Z,52.31
2024-05-09T06:49:05.919Z,52.54
2024-05-09T06:51:43.300Z,52.64
2024-05-09T06:54:15.192Z,52.18
2024-05-09T06:56:45.504Z,51.40
2024-05-09T06:59:17.172Z,51.59
2024-05-09T07:01:47.660Z,52.02
2024-05-09T07:04:19.469Z,51.85
2024-05-09T07:06:49.889Z,51.72
2024-05-09T07:09:21.435Z,51.03
2024-05-09T07:11:52.055Z,50.12
2024-05-09T07:14:24.099Z,49.86
2024-05-09T07:16:54.755Z,50.51
2024-05-09T07:19:26.478Z,50.21
2024-05-09T07:21:58.171Z,49.87
2024-05-09T07:24:29.721Z,49.90
2024-05-09T07:27:00.044Z,49.35
2024-05-09T07:29:32.975Z,48.68
2024-05-09T07:32:06.710Z,48.59
2024-05-09T07:34:38.377Z,48.62
2024-05-09T07:37:12.855Z,48.76
2024-05-09T07:39:44.479Z,48.55
2024-05-09T07:42:14.798Z,47.83
2024-05-09T07:44:46.353Z,47.17
2024-05-09T07:48:28.921Z,47.13
2024-05-09T07:53:34.356Z,46.54
2024-05-09T07:55:35.905Z,46.49
2024-05-09T07:58:06.338Z,46.95
2024-05-09T08:00:38.624Z,46.38
2024-05-09T08:03:10.609Z,46.34
2024-05-09T08:05:42.327Z,46.25
2024-05-09T08:08:12.835Z,45.19
2024-05-09T08:10:44.402Z,45.84
2024-05-09T08:13:14.997Z,45.84
2024-05-09T08:15:46.907Z,45.02
2024-05-09T08:18:17.347Z,44.92
2024-05-09T08:20:49.964Z,44.23
2024-05-09T08:23:20.189Z,44.01
2024-05-09T08:25:53.117Z,43.95
2024-05-09T08:28:23.641Z,43.02
2024-05-09T08:30:55.312Z,42.88
2024-05-09T08:33:26.145Z,42.59
2024-05-09T08:35:58.574Z,42.90
2024-05-09T08:38:28.889Z,42.86
2024-05-09T08:41:02.282Z,42.04
2024-05-09T08:43:32.549Z,42.03
2024-05-09T08:46:04.894Z,41.90
2024-05-09T08:48:36.814Z,41.81
2024-05-09T08:51:08.398Z,41.63
2024-05-09T08:53:39.035Z,41.04
2024-05-09T08:56:10.514Z,40.76
2024-05-09T08:58:41.006Z,40.98
2024-05-09T09:01:14.376Z,41.46
2024-05-09T09:03:45.247Z,41.04
2024-05-09T09:06:18.534Z,40.49
2024-05-09T09:08:48.960Z,39.93
2024-05-09T09:11:20.650Z,39.68
2024-05-09T09:13:51.652Z,39.36
2024-05-09T09:16:35.628Z,39.02
2024-05-09T09:19:07.251Z,39.50
2024-05-09T09:21:37.833Z,39.49
2024-05-09T09:24:10.464Z,39.34
2024-05-09T09:26:41.172Z,38.51
2024-05-09T09:29:12.850Z,37.64
2024-05-09T09:31:43.172Z,37.69
2024-05-09T09:34:14.925Z,38.50
2024-05-09T09:36:45.739Z,37.92
2024-05-09T09:39:17.316Z,36.22
2024-05-09T09:41:47.640Z,36.67
2024-05-09T09:44:19.199Z,36.34
2024-05-09T09:46:50.378Z,35.90
2024-05-09T09:49:26.757Z,36.08
2024-05-09T09:51:58.602Z,35.88
2024-05-09T09:54:29.491Z,35.54
2024-05-09T09:57:01.176Z,35.47
2024-05-09T09:59:31.685Z,35.23
2024-05-09T10:02:03.555Z,35.33
2024-05-09T10:04:34.097Z,34.50
2024-05-09T10:07:08.690Z,34.75
2024-05-09T10:09:39.060Z,35.15
2024-05-09T10:12:11.815Z,34.16
2024-05-09T10:14:48.442Z,34.45
2024-05-09T10:17:20.194Z,34.18
2024-05-09T10:19:51.088Z,34.88
2024-05-09T10:25:25.218Z,34.25
2024-05-09T10:27:56.168Z,34.11
2024-05-09T10:30:34.076Z,34.01
2024-05-09T10:33:11.138Z,32.72
2024-05-09T10:35:51.509Z,33.33
2024-05-09T10:38:23.248Z,33.52
2024-05-09T10:40:57.163Z,32.51
2024-05-09T10:43:28.798Z,32.39
2024-05-09T10:45:59.654Z,32.25
2024-05-09T10:48:31.212Z,32.54
2024-05-09T10:51:02.037Z,32.15
2024-05-09T10:53:43.443Z,32.27
2024-05-09T10:56:15.300Z,31.84
2024-05-09T10:58:45.541Z,31.58
2024-05-09T11:01:17.251Z,32.40
2024-05-09T11:03:48.668Z,31.86
2024-05-09T11:06:20.576Z,31.75
2024-05-09T11:08:50.912Z,31.64
2024-05-09T11:11:22.670Z,31.18
2024-05-09T11:13:53.040Z,31.80
2024-05-09T11:16:24.771Z,31.99
2024-05-09T11:18:56.772Z,31.49
2024-05-09T11:21:29.098Z,30.82
2024-05-09T11:23:59.339Z,30.49
2024-05-09T11:26:34.228Z,30.41
2024-05-09T11:29:06.910Z,30.72
2024-05-09T11:31:49.487Z,30.21
2024-05-09T11:34:21.237Z,30.16
2024-05-09T11:36:51.651Z,29.79
2024-05-09T11:39:23.659Z,29.64
2024-05-09T11:41:53.987Z,29.46
2024-05-09T11:44:26.878Z,28.49
2024-05-09T11:46:57.307Z,28.40
2024-05-09T11:49:29.192Z,28.05
2024-05-09T11:51:59.684Z,28.08
2024-05-09T11:54:31.576Z,27.16
2024-05-09T11:57:01.888Z,27.39
2024-05-09T11:59:33.641Z,27.29
2024-05-09T12:02:04.653Z,27.16
2024-05-09T12:04:36.466Z,26.97
2024-05-09T12:07:09.148Z,26.69
2024-05-09T12:09:42.147Z,26.64
2024-05-09T12:12:13.651Z,26.93
2024-05-09T12:14:45.203Z,27.42
2024-05-09T12:17:15.682Z,26.62
2024-05-09T12:19:47.637Z,27.09
2024-05-09T12:22:18.286Z,27.21
2024-05-09T12:24:50.020Z,27.72
2024-05-09T12:27:20.698Z,27.45
2024-05-09T12:29:52.254Z,27.04
2024-05-09T12:32:22.742Z,26.90
2024-05-09T12:34:54.445Z,26.41
2024-05-09T12:37:24.964Z,26.41
2024-05-09T12:39:57.288Z,26.86
2024-05-09T12:42:29.088Z,27.60
2024-05-09T12:45:01.475Z,27.51
2024-05-09T12:47:31.901Z,26.78
2024-05-09T12:50:06.458Z,26.53
2024-05-09T12:52:40.136Z,26.07
2024-05-09T12:55:11.042Z,25.97
2024-05-09T12:57:42.642Z,26.19
2024-05-09T13:00:23.254Z,26.26
2024-05-09T13:02:59.743Z,26.13
2024-05-09T13:05:30.612Z,26.25
2024-05-09T13:08:03.649Z,26.22
2024-05-09T13:10:35.220Z,26.73
2024-05-09T13:13:06.842Z,27.17
2024-05-09T13:15:37.578Z,26.40
2024-05-09T13:18:09.447Z,26.66
2024-05-09T13:20:39.942Z,26.41
2024-05-09T13:23:11.682Z,26.05
2024-05-09T13:25:42.306Z,26.10
2024-05-09T13:28:13.992Z,26.05
2024-05-09T13:30:44.417Z,26.10
2024-05-09T13:33:16.265Z,26.19
2024-05-09T13:35:50.157Z,26.28
2024-05-09T13:38:22.841Z,25.39
2024-05-09T13:40:53.303Z,25.76
2024-05-09T13:43:25.827Z,25.69
2024-05-09T13:45:57.612Z,25.88
2024-05-09T13:48:29.262Z,25.90
2024-05-09T13:50:59.790Z,26.30
2024-05-09T13:53:31.537Z,26.00
2024-05-09T13:56:01.864Z,25.55
2024-05-09T13:58:33.607Z,25.87
2024-05-09T14:01:04.331Z,26.02
2024-05-09T14:03:36.338Z,26.04
2024-05-09T14:06:09.405Z,26.26
2024-05-09T14:08:43.010Z,26.55
2024-05-09T14:11:13.423Z,26.13
2024-05-09T14:13:45.290Z,26.25
2024-05-09T14:16:15.925Z,26.44
2024-05-09T14:18:47.583Z,26.28
2024-05-09T14:21:18.007Z,26.62
2024-05-09T14:23:49.777Z,26.77
2024-05-09T14:26:20.290Z,26.98
2024-05-09T14:28:51.939Z,27.20
2024-05-09T14:31:22.529Z,26.76
2024-05-09T14:33:54.647Z,27.05
2024-05-09T14:36:25.064Z,27.21
2024-05-09T14:38:56.621Z,27.21
2024-05-09T14:41:26.963Z,27.18
2024-05-09T14:43:58.803Z,27.16
2024-05-09T14:46:29.338Z,27.10
2024-05-09T14:49:00.989Z,27.23
2024-05-09T14:51:31.558Z,26.59
2024-05-09T14:54:03.702Z,26.60
2024-05-09T14:56:34.012Z,26.57
2024-05-09T14:59:06.998Z,26.67
2024-05-09T15:01:37.321Z,26.54
2024-05-09T15:04:09.178Z,26.57
2024-05-09T15:06:41.104Z,26.67
2024-05-09T15:09:12.804Z,26.16
2024-05-09T15:11:44.012Z,26.56
2024-05-09T15:14:16.103Z,26.67
2024-05-09T15:16:46.238Z,26.46
2024-05-09T15:19:18.255Z,26.76
2024-05-09T15:21:48.712Z,26.75
2024-05-09T15:24:20.474Z,26.02
2024-05-09T15:26:51.424Z,25.75
2024-05-09T15:29:23.075Z,25.60
2024-05-09T15:31:53.647Z,25.57
2024-05-09T15:34:25.406Z,24.19
2024-05-09T15:36:57.626Z,24.15
2024-05-09T15:39:30.516Z,23.83
2024-05-09T15:42:02.675Z,23.00
2024-05-09T15:44:35.370Z,23.72
2024-05-09T15:47:05.780Z,23.19
2024-05-09T15:49:37.583Z,22.84
2024-05-09T15:52:08.209Z,22.85
2024-05-09T15:54:40.070Z,21.91
2024-05-09T15:57:10.458Z,22.91
2024-05-09T15:59:42.219Z,22.60
2024-05-09T16:02:12.901Z,22.39
2024-05-09T16:04:44.868Z,21.75
2024-05-09T16:07:15.264Z,21.71
2024-05-09T16:09:47.168Z,21.80
2024-05-09T16:12:17.530Z,21.68
2024-05-09T16:14:50.841Z,21.27
2024-05-09T16:17:21.111Z,21.37
2024-05-09T16:19:52.902Z,20.99
2024-05-09T16:22:23.669Z,21.26
2024-05-09T16:24:55.207Z,21.33
2024-05-09T16:27:26.339Z,21.57
2024-05-09T16:30:03.981Z,21.12
2024-05-09T16:32:37.016Z,20.85
2024-05-09T16:35:07.446Z,20.53
2024-05-09T16:37:38.989Z,20.89
2024-05-09T16:40:21.683Z,21.15
2024-05-09T16:43:03.430Z,20.47
2024-05-09T16:45:34.080Z,20.64
2024-05-09T16:48:07.161Z,20.62
2024-05-09T16:50:38.063Z,20.51
2024-05-09T16:53:09.541Z,20.50
2024-05-09T16:55:40.239Z,20.17
2024-05-09T16:58:12.687Z,19.93
2024-05-09T17:00:44.252Z,20.02
2024-05-09T17:03:17.385Z,20.21
2024-05-09T17:05:48.431Z,20.14
2024-05-09T17:08:20.461Z,20.26
2024-05-09T17:10:51.171Z,20.25
2024-05-09T17:13:23.427Z,20.41
2024-05-09T17:15:54.065Z,20.58
2024-05-09T17:18:26.294Z,20.71
2024-05-09T17:20:56.392Z,21.51
2024-05-09T17:25:58.363Z,22.78
2024-05-09T17:28:29.961Z,23.69
2024-05-09T17:31:00.365Z,24.28
2024-05-09T17:33:32.461Z,24.91
2024-05-09T17:36:02.838Z,25.40
2024-05-09T17:38:34.598Z,25.73
2024-05-09T17:41:05.256Z,26.25
2024-05-09T17:43:37.087Z,26.79
2024-05-09T17:46:08.260Z,27.27
2024-05-09T17:48:39.945Z,27.85
2024-05-09T17:51:10.418Z,28.29
2024-05-09T17:53:42.071Z,28.71
2024-05-09T17:56:12.707Z,29.13
2024-05-09T17:58:44.870Z,29.49
2024-05-09T18:01:15.721Z,29.85
2024-05-09T18:03:48.740Z,30.23
2024-05-09T18:06:19.225Z,30.54
2024-05-09T18:08:50.777Z,31.02
2024-05-09T18:11:21.440Z,31.37
2024-05-09T18:13:54.398Z,31.73
2024-05-09T18:16:24.680Z,32.03
2024-05-09T18:18:56.616Z,32.48
2024-05-09T18:21:27.106Z,32.82
2024-05-09T18:24:00.150Z,33.19
2024-05-09T18:26:30.624Z,33.54
2024-05-09T18:29:02.581Z,34.07
2024-05-09T18:31:32.901Z,34.59
2024-05-09T18:34:05.818Z,35.42
2024-05-09T18:36:36.432Z,36.38
2024-05-09T18:39:07.975Z,37.01
2024-05-09T18:41:38.400Z,37.84
2024-05-09T18:44:09.960Z,38.57
2024-05-09T18:46:40.416Z,39.41
2024-05-09T18:49:12.497Z,40.35
2024-05-09T18:51:43.097Z,41.08
2024-05-09T18:54:15.041Z,41.64
2024-05-09T18:56:45.162Z,42.04
2024-05-09T18:59:16.836Z,42.73
2024-05-09T19:01:47.908Z,43.66
2024-05-09T19:04:19.729Z,44.19
2024-05-09T19:06:50.288Z,44.77
2024-05-09T19:09:22.005Z,45.30
2024-05-09T19:11:52.416Z,45.78
2024-05-09T19:14:25.521Z,46.19
2024-05-09T19:16:55.641Z,46.46
2024-05-09T19:19:28.327Z,47.07
2024-05-09T19:21:58.554Z,47.54
2024-05-09T19:24:30.236Z,48.01
2024-05-09T19:27:01.951Z,48.50
2024-05-09T19:29:33.514Z,48.66
2024-05-09T19:32:04.460Z,48.88
2024-05-09T19:34:36.042Z,49.17
2024-05-09T19:37:06.550Z,49.78
2024-05-09T19:39:38.435Z,50.23
2024-05-09T19:42:08.835Z,50.25
2024-05-09T19:44:40.367Z,50.37
2024-05-09T19:47:10.998Z,50.64
2024-05-09T19:49:42.799Z,50.86
2024-05-09T19:52:13.361Z,51.31
2024-05-09T19:54:49.629Z,51.60
2024-05-09T19:57:21.257Z,51.96
2024-05-09T19:59:51.730Z,52.32
2024-05-09T20:02:23.390Z,52.67
2024-05-09T20:04:54.038Z,53.06
2024-05-09T20:07:25.876Z,53.31
2024-05-09T20:09:56.471Z,53.97
2024-05-09T20:12:28.397Z,54.26
2024-05-09T20:14:59.512Z,54.57
2024-05-09T20:17:31.192Z,54.69
2024-05-09T20:20:01.921Z,55.01
2024-05-09T20:22:34.176Z,55.30
2024-05-09T20:25:05.045Z,55.70
2024-05-09T20:27:36.519Z,56.02
2024-05-09T20:30:12.080Z,56.48
2024-05-09T20:32:46.705Z,56.60
2024-05-09T20:35:17.280Z,57.12
2024-05-09T20:37:48.919Z,57.74
2024-05-09T20:40:26.097Z,58.10
2024-05-09T20:43:04.832Z,58.25
2024-05-09T20:45:35.783Z,58.41
2024-05-09T20:48:09.618Z,58.24
2024-05-09T20:50:42.480Z,58.32
2024-05-09T20:53:15.619Z,58.58
2024-05-09T20:55:47.298Z,58.90
2024-05-09T20:58:18.976Z,59.21
2024-05-09T21:00:49.405Z,59.41
2024-05-09T21:03:20.987Z,59.51
2024-05-09T21:05:51.843Z,59.80
2024-05-09T21:08:23.898Z,59.64
2024-05-09T21:10:54.468Z,59.64
2024-05-09T21:13:26.356Z,59.77
2024-05-09T21:15:56.921Z,59.95
2024-05-09T21:18:28.819Z,60.53
2024-05-09T21:20:59.356Z,61.03
2024-05-09T21:23:31.263Z,61.09
2024-05-09T21:26:01.627Z,61.53
2024-05-09T21:28:33.316Z,61.95
2024-05-09T21:31:04.398Z,62.20
2024-05-09T21:33:37.357Z,62.37
2024-05-09T21:36:09.243Z,62.04
2024-05-09T21:38:41.411Z,62.03
2024-05-09T21:41:12.185Z,62.30
2024-05-09T21:43:43.635Z,62.43
2024-05-09T21:46:13.993Z,62.78
2024-05-09T21:48:46.001Z,62.85
2024-05-09T21:51:16.544Z,63.41
2024-05-09T21:53:48.914Z,63.83
2024-05-09T21:56:19.539Z,64.05
2024-05-09T21:58:50.992Z,64.45
2024-05-09T22:01:22.523Z,64.61
2024-05-09T22:03:54.333Z,64.81
2024-05-09T22:06:24.930Z,64.66
2024-05-09T22:08:56.709Z,64.80
2024-05-09T22:11:27.111Z,64.94
2024-05-09T22:13:59.013Z,65.09
2024-05-09T22:16:29.668Z,65.20
2024-05-09T22:19:01.431Z,65.44
2024-05-09T22:21:31.940Z,65.79
2024-05-09T22:24:03.922Z,65.95
2024-05-09T22:26:36.843Z,65.95
2024-05-09T22:29:08.295Z,65.98
2024-05-09T22:31:38.731Z,66.11
2024-05-09T22:34:10.545Z,66.31
2024-05-09T22:36:41.125Z,66.60
2024-05-09T22:39:12.561Z,66.26
2024-05-09T22:41:43.294Z,66.14
2024-05-09T22:44:15.056Z,65.96
2024-05-09T22:46:45.499Z,65.89
2024-05-09T22:49:17.101Z,66.04
2024-05-09T22:51:47.806Z,66.03
2024-05-09T22:54:19.338Z,66.40
2024-05-09T22:56:49.743Z,66.35
2024-05-09T22:59:21.605Z,66.61
2024-05-09T23:01:52.005Z,66.70
2024-05-09T23:04:24.047Z,65.98
2024-05-09T23:06:54.564Z,66.49
2024-05-09T23:09:26.386Z,67.00
2024-05-09T23:11:56.755Z,67.03
2024-05-09T23:14:28.563Z,67.32
2024-05-09T23:16:58.999Z,67.83
2024-05-09T23:19:31.024Z,68.41
2024-05-09T23:22:01.480Z,68.65
2024-05-09T23:24:35.342Z,68.81
2024-05-09T23:27:05.714Z,69.06
2024-05-09T23:29:37.179Z,69.24
2024-05-09T23:32:09.427Z,69.23
2024-05-09T23:34:40.941Z,69.49
2024-05-09T23:37:11.386Z,69.48
2024-05-09T23:39:43.017Z,69.68
2024-05-09T23:42:13.390Z,69.93
2024-05-09T23:44:45.156Z,69.77
2024-05-09T23:47:15.620Z,69.55
2024-05-09T23:49:47.794Z,69.19
2024-05-09T23:52:18.144Z,68.70
2024-05-09T23:54:49.852Z,68.99
2024-05-09T23:57:20.659Z,68.96
2024-05-09T23:59:52.129Z,68.53
